createdAt,value
2022-08-26T00:01:54.921Z,9.20
2022-08-26T00:04:23.705Z,9.02
2022-08-26T00:06:51.970Z,8.02
2022-08-26T00:09:19.754Z,11.45
2022-08-26T00:11:47.804Z,11.23
2022-08-26T00:14:17.058Z,7.43
2022-08-26T00:16:47.781Z,6.35
2022-08-26T00:19:18.023Z,7.83
2022-08-26T00:21:46.315Z,6.88
2022-08-26T00:24:16.857Z,8.75
2022-08-26T00:26:45.013Z,8.05
2022-08-26T00:29:13.256Z,7.90
2022-08-26T00:31:41.379Z,8.38
2022-08-26T00:34:11.317Z,7.43
2022-08-26T00:36:41.169Z,7.47
2022-08-26T00:39:09.205Z,14.18
2022-08-26T00:41:38.530Z,6.80
2022-08-26T00:44:07.939Z,8.32
2022-08-26T00:46:46.631Z,6.10
2022-08-26T00:49:19.163Z,6.85
2022-08-26T00:51:54.968Z,8.40
2022-08-26T00:54:28.194Z,8.38
2022-08-26T00:56:59.993Z,8.57
2022-08-26T00:59:29.627Z,9.63
2022-08-26T01:02:02.700Z,8.48
2022-08-26T01:04:32.428Z,6.40
2022-08-26T01:07:02.748Z,7.55
2022-08-26T01:09:31.101Z,9.10
2022-08-26T01:12:01.712Z,6.90
2022-08-26T01:14:33.303Z,11.25
2022-08-26T01:17:05.105Z,8.43
2022-08-26T01:19:37.724Z,6.28
2022-08-26T01:22:13.552Z,10.70
2022-08-26T01:24:43.714Z,8.98
2022-08-26T01:27:15.454Z,10.30
2022-08-26T01:29:45.970Z,8.45
2022-08-26T01:32:19.314Z,7.38
2022-08-26T01:34:48.978Z,10.32
2022-08-26T01:37:20.508Z,9.27
2022-08-26T01:39:53.684Z,7.35
2022-08-26T01:42:24.465Z,10.00
2022-08-26T01:44:57.713Z,9.50
2022-08-26T01:47:28.119Z,8.52
2022-08-26T01:50:00.851Z,8.93
2022-08-26T01:52:34.227Z,8.82
2022-08-26T01:55:04.881Z,9.63
2022-08-26T01:57:33.225Z,11.10
2022-08-26T02:00:04.038Z,11.68
2022-08-26T02:02:32.669Z,10.63
2022-08-26T02:05:04.951Z,7.88
2022-08-26T02:07:33.841Z,12.65
2022-08-26T02:10:04.494Z,6.95
2022-08-26T02:12:33.510Z,8.45
2022-08-26T02:15:05.581Z,13.77
2022-08-26T02:17:38.698Z,13.32
2022-08-26T02:20:13.339Z,9.88
2022-08-26T02:22:45.250Z,10.50
2022-08-26T02:25:19.566Z,10.18
2022-08-26T02:27:48.608Z,10.82
2022-08-26T02:30:19.632Z,10.05
2022-08-26T02:32:49.570Z,9.10
2022-08-26T02:35:20.309Z,15.68
2022-08-26T02:37:49.511Z,11.63
2022-08-26T02:40:22.460Z,10.65
2022-08-26T02:42:50.428Z,9.02
2022-08-26T02:45:23.824Z,7.88
2022-08-26T02:47:52.562Z,10.13
2022-08-26T02:50:22.205Z,12.30
2022-08-26T02:52:50.785Z,10.45
2022-08-26T02:55:20.130Z,12.45
2022-08-26T02:57:47.950Z,11.10
2022-08-26T03:00:17.243Z,11.57
2022-08-26T03:02:45.104Z,18.02
2022-08-26T03:05:13.903Z,9.10
2022-08-26T03:07:43.696Z,10.15
2022-08-26T03:10:13.567Z,8.40
2022-08-26T03:12:47.458Z,9.88
2022-08-26T03:15:18.539Z,8.25
2022-08-26T03:17:47.451Z,9.73
2022-08-26T03:20:17.318Z,11.07
2022-08-26T03:22:46.356Z,8.27
2022-08-26T03:25:17.394Z,7.43
2022-08-26T03:27:46.941Z,9.32
2022-08-26T03:30:34.703Z,14.60
2022-08-26T03:33:02.906Z,11.07
2022-08-26T03:35:31.954Z,7.15
2022-08-26T03:38:00.505Z,7.55
2022-08-26T03:40:29.931Z,12.85
2022-08-26T03:42:59.013Z,11.32
2022-08-26T03:45:27.844Z,11.65
2022-08-26T03:47:55.678Z,12.00
2022-08-26T03:50:26.274Z,11.95
2022-08-26T03:52:56.591Z,11.88
2022-08-26T03:55:26.970Z,8.30
2022-08-26T03:57:55.792Z,10.80
2022-08-26T04:00:25.492Z,8.63
2022-08-26T04:02:53.719Z,9.02
2022-08-26T04:05:23.012Z,8.65
2022-08-26T04:07:51.197Z,12.77
2022-08-26T04:10:22.111Z,7.60
2022-08-26T04:12:56.577Z,14.70
2022-08-26T04:15:29.069Z,8.93
2022-08-26T04:17:57.691Z,12.77
2022-08-26T04:20:25.721Z,15.30
2022-08-26T04:22:53.937Z,13.38
2022-08-26T04:25:22.467Z,13.30
2022-08-26T04:27:52.046Z,12.95
2022-08-26T04:30:20.305Z,11.95
2022-08-26T04:32:50.305Z,9.05
2022-08-26T04:35:18.570Z,9.75
2022-08-26T04:37:50.409Z,13.82
2022-08-26T04:40:19.681Z,11.02
2022-08-26T04:42:47.685Z,11.13
2022-08-26T04:45:16.808Z,10.55
2022-08-26T04:47:45.827Z,10.68
2022-08-26T04:50:16.774Z,10.23
2022-08-26T04:52:45.818Z,12.05
2022-08-26T04:55:13.813Z,16.67
2022-08-26T04:57:41.905Z,13.45
2022-08-26T05:00:11.974Z,11.45
2022-08-26T05:02:40.857Z,11.00
2022-08-26T05:05:09.651Z,11.93
2022-08-26T05:07:39.005Z,13.52
2022-08-26T05:10:09.530Z,9.23
2022-08-26T05:12:38.542Z,11.90
2022-08-26T05:15:07.752Z,14.50
2022-08-26T05:17:35.503Z,14.43
2022-08-26T05:20:04.316Z,11.57
2022-08-26T05:22:32.170Z,9.63
2022-08-26T05:25:01.762Z,12.10
2022-08-26T05:27:29.649Z,9.05
2022-08-26T05:29:58.762Z,11.75
2022-08-26T05:32:27.438Z,9.15
2022-08-26T05:34:57.093Z,8.57
2022-08-26T05:37:26.346Z,8.40
2022-08-26T05:39:54.133Z,9.65
2022-08-26T05:42:23.273Z,10.07
2022-08-26T05:44:56.060Z,33.88
2022-08-26T05:47:24.620Z,24.38
2022-08-26T05:49:52.382Z,12.68
2022-08-26T05:52:21.060Z,11.40
2022-08-26T05:54:52.640Z,9.20
2022-08-26T05:57:20.330Z,20.85
2022-08-26T05:59:52.703Z,12.13
2022-08-26T06:02:20.542Z,10.90
2022-08-26T06:04:48.408Z,10.30
2022-08-26T06:07:16.925Z,12.25
2022-08-26T06:09:46.285Z,11.10
2022-08-26T06:12:14.041Z,13.52
2022-08-26T06:14:42.863Z,13.75
2022-08-26T06:17:11.990Z,9.65
2022-08-26T06:19:41.358Z,14.30
2022-08-26T06:22:29.195Z,12.57
2022-08-26T06:25:14.175Z,20.23
2022-08-26T06:27:41.934Z,13.68
2022-08-26T06:30:10.685Z,23.75
2022-08-26T06:32:39.739Z,19.88
2022-08-26T06:35:11.970Z,24.27
2022-08-26T06:37:40.394Z,15.38
2022-08-26T06:40:10.137Z,21.20
2022-08-26T06:42:39.543Z,18.10
2022-08-26T06:45:08.592Z,20.77
2022-08-26T06:47:38.804Z,15.10
2022-08-26T06:50:07.817Z,25.20
2022-08-26T06:52:35.582Z,19.60
2022-08-26T06:55:03.574Z,19.00
2022-08-26T06:57:32.871Z,12.48
2022-08-26T07:00:02.974Z,20.17
2022-08-26T07:02:31.800Z,22.00
2022-08-26T07:05:01.027Z,18.92
2022-08-26T07:07:29.506Z,17.33
2022-08-26T07:09:57.597Z,18.60
2022-08-26T07:12:26.024Z,14.70
2022-08-26T07:14:54.020Z,17.15
2022-08-26T07:17:21.743Z,18.63
2022-08-26T07:19:53.582Z,14.20
2022-08-26T07:22:22.780Z,13.63
2022-08-26T07:24:52.122Z,10.88
2022-08-26T07:27:19.786Z,14.25
2022-08-26T07:29:48.736Z,11.50
2022-08-26T07:32:17.302Z,15.30
2022-08-26T07:34:46.784Z,18.05
2022-08-26T07:37:14.805Z,16.40
2022-08-26T07:39:44.496Z,13.90
2022-08-26T07:42:14.132Z,14.95
2022-08-26T07:44:42.806Z,18.00
2022-08-26T07:47:25.157Z,19.55
2022-08-26T07:49:55.579Z,20.70
2022-08-26T07:52:26.761Z,19.33
2022-08-26T07:54:58.051Z,18.23
2022-08-26T07:57:26.215Z,12.90
2022-08-26T07:59:55.183Z,8.98
2022-08-26T08:02:24.984Z,6.25
2022-08-26T08:04:53.589Z,9.63
2022-08-26T08:07:21.366Z,14.65
2022-08-26T08:10:11.410Z,12.05
2022-08-26T08:12:39.509Z,11.68
2022-08-26T08:15:09.025Z,11.60
2022-08-26T08:17:37.784Z,8.32
2022-08-26T08:20:07.292Z,12.18
2022-08-26T08:22:35.454Z,9.32
2022-08-26T08:25:06.244Z,11.48
2022-08-26T08:30:07.573Z,10.52
2022-08-26T08:32:38.195Z,7.25
2022-08-26T08:35:10.718Z,5.77
2022-08-26T08:37:38.947Z,5.90
2022-08-26T08:40:08.622Z,5.85
2022-08-26T08:42:45.787Z,12.95
2022-08-26T08:45:18.899Z,6.68
2022-08-26T08:47:51.492Z,4.65
2022-08-26T08:50:27.049Z,12.07
2022-08-26T08:53:12.156Z,10.20
2022-08-26T08:55:51.350Z,6.32
2022-08-26T08:58:25.693Z,7.57
2022-08-26T09:01:01.593Z,10.73
2022-08-26T09:03:44.387Z,6.15
2022-08-26T09:08:50.055Z,7.65
2022-08-26T09:11:20.038Z,6.13
2022-08-26T09:13:53.788Z,9.35
2022-08-26T09:16:27.885Z,6.18
2022-08-26T09:19:05.017Z,8.68
2022-08-26T09:21:33.708Z,7.18
2022-08-26T09:24:02.024Z,6.63
2022-08-26T09:26:42.383Z,8.55
2022-08-26T09:32:16.303Z,9.57
2022-08-26T09:34:55.559Z,6.45
2022-08-26T09:37:36.542Z,4.85
2022-08-26T09:40:27.030Z,8.63
2022-08-26T09:43:11.055Z,8.75
2022-08-26T09:45:49.936Z,16.52
2022-08-26T09:48:27.842Z,10.65
2022-08-26T09:50:57.618Z,8.13
2022-08-26T09:53:30.243Z,6.85
2022-08-26T09:56:17.624Z,8.27
2022-08-26T09:58:48.217Z,6.75
2022-08-26T10:01:30.012Z,7.95
2022-08-26T10:04:07.363Z,3.50
2022-08-26T10:06:39.961Z,8.57
2022-08-26T10:09:09.813Z,9.20
2022-08-26T10:11:43.930Z,6.50
2022-08-26T10:14:16.992Z,7.20
2022-08-26T10:16:51.874Z,7.10
2022-08-26T10:19:29.189Z,8.27
2022-08-26T10:22:16.416Z,8.25
2022-08-26T10:24:49.835Z,5.72
2022-08-26T10:27:28.598Z,7.80
2022-08-26T10:30:05.171Z,8.45
2022-08-26T10:32:40.752Z,13.73
2022-08-26T10:35:13.598Z,4.28
2022-08-26T10:37:46.575Z,3.63
2022-08-26T10:40:19.434Z,8.20
2022-08-26T10:42:54.252Z,8.35
2022-08-26T10:45:26.807Z,5.57
2022-08-26T10:48:02.202Z,8.63
2022-08-26T10:50:34.399Z,7.13
2022-08-26T10:53:08.766Z,6.80
2022-08-26T10:55:41.900Z,5.13
2022-08-26T10:58:42.325Z,5.57
2022-08-26T11:01:35.797Z,6.38
2022-08-26T11:04:19.832Z,8.95
2022-08-26T11:09:45.795Z,4.18
2022-08-26T11:12:49.171Z,5.82
2022-08-26T11:15:50.808Z,7.85
2022-08-26T11:18:46.974Z,5.10
2022-08-26T11:21:52.005Z,7.60
2022-08-26T11:24:56.326Z,6.18
2022-08-26T11:28:06.536Z,9.85
2022-08-26T11:30:57.834Z,6.70
2022-08-26T11:33:59.955Z,5.28
2022-08-26T11:36:41.823Z,5.40
2022-08-26T11:39:23.015Z,5.10
2022-08-26T11:41:53.860Z,3.90
2022-08-26T11:46:55.584Z,8.52
2022-08-26T11:49:24.845Z,5.28
2022-08-26T11:51:53.111Z,5.32
2022-08-26T11:54:35.157Z,4.40
2022-08-26T11:57:11.709Z,5.03
2022-08-26T11:59:42.462Z,5.35
2022-08-26T12:02:18.138Z,7.57
2022-08-26T12:04:49.203Z,4.47
2022-08-26T12:07:18.536Z,9.63
2022-08-26T12:09:56.530Z,4.88
2022-08-26T12:12:30.758Z,3.95
2022-08-26T12:15:13.824Z,3.72
2022-08-26T12:17:42.906Z,4.70
2022-08-26T12:20:31.151Z,4.22
2022-08-26T12:23:00.755Z,8.65
2022-08-26T12:25:35.998Z,3.67
2022-08-26T12:28:06.498Z,2.65
2022-08-26T12:30:34.374Z,7.32
2022-08-26T12:33:22.336Z,3.22
2022-08-26T12:35:56.373Z,4.32
2022-08-26T12:38:25.829Z,5.85
2022-08-26T12:40:55.596Z,13.35
2022-08-26T12:43:43.947Z,6.22
2022-08-26T12:46:15.509Z,3.97
2022-08-26T12:48:48.499Z,3.60
2022-08-26T12:51:24.044Z,6.93
2022-08-26T12:53:52.765Z,8.45
2022-08-26T12:56:28.272Z,5.93
2022-08-26T12:59:05.357Z,6.55
2022-08-26T13:01:42.903Z,7.03
2022-08-26T13:04:39.344Z,16.38
2022-08-26T13:07:15.843Z,8.48
2022-08-26T13:09:43.629Z,5.57
2022-08-26T13:12:13.467Z,6.65
2022-08-26T13:14:41.194Z,4.03
2022-08-26T13:17:09.048Z,7.55
2022-08-26T13:19:36.807Z,6.75
2022-08-26T13:22:06.032Z,4.38
2022-08-26T13:24:38.016Z,8.65
2022-08-26T13:27:08.312Z,5.43
2022-08-26T13:29:37.600Z,7.50
2022-08-26T13:32:06.606Z,4.72
2022-08-26T13:34:34.521Z,7.00
2022-08-26T13:37:02.210Z,3.42
2022-08-26T13:39:30.334Z,6.47
2022-08-26T13:41:58.145Z,5.88
2022-08-26T13:44:25.875Z,3.17
2022-08-26T13:46:55.168Z,5.60
2022-08-26T13:49:23.090Z,5.82
2022-08-26T13:51:50.812Z,4.68
2022-08-26T13:54:18.521Z,5.43
2022-08-26T13:56:46.294Z,2.75
2022-08-26T13:59:14.058Z,9.25
2022-08-26T14:01:41.775Z,2.97
2022-08-26T14:04:10.860Z,6.85
2022-08-26T14:06:38.623Z,2.08
2022-08-26T14:09:06.451Z,8.52
2022-08-26T14:11:50.853Z,5.57
2022-08-26T14:14:21.894Z,7.40
2022-08-26T14:16:58.874Z,2.67
2022-08-26T14:19:30.977Z,8.93
2022-08-26T14:22:01.007Z,7.22
2022-08-26T14:24:29.172Z,7.45
2022-08-26T14:26:56.982Z,3.63
2022-08-26T14:29:27.112Z,8.60
2022-08-26T14:31:57.797Z,4.30
2022-08-26T14:36:57.415Z,5.55
2022-08-26T14:39:35.676Z,2.95
2022-08-26T14:42:03.444Z,7.25
2022-08-26T14:44:34.052Z,7.15
2022-08-26T14:47:03.846Z,8.23
2022-08-26T14:49:32.134Z,6.25
2022-08-26T14:52:01.401Z,3.92
2022-08-26T14:54:29.343Z,9.30
2022-08-26T14:57:00.600Z,7.20
2022-08-26T14:59:31.171Z,7.03
2022-08-26T15:02:00.428Z,7.55
2022-08-26T15:04:28.881Z,5.47
2022-08-26T15:06:59.680Z,9.70
2022-08-26T15:09:30.337Z,10.23
2022-08-26T15:11:58.096Z,10.80
2022-08-26T15:14:27.664Z,9.18
2022-08-26T15:19:27.371Z,8.63
2022-08-26T15:21:55.592Z,10.50
2022-08-26T15:24:25.837Z,6.30
2022-08-26T15:26:55.303Z,7.18
2022-08-26T15:29:24.059Z,9.07
2022-08-26T15:31:52.172Z,6.70
2022-08-26T15:34:24.930Z,8.40
2022-08-26T15:36:52.725Z,8.15
2022-08-26T15:39:21.020Z,12.27
2022-08-26T15:41:48.852Z,10.98
2022-08-26T15:44:18.455Z,7.05
2022-08-26T15:46:48.144Z,7.50
2022-08-26T15:49:18.151Z,8.13
2022-08-26T15:51:48.020Z,7.07
2022-08-26T15:54:17.708Z,7.97
2022-08-26T15:56:45.759Z,12.90
2022-08-26T15:59:17.857Z,7.15
2022-08-26T16:01:45.796Z,11.70
2022-08-26T16:04:13.924Z,8.65
2022-08-26T16:06:43.424Z,8.18
2022-08-26T16:09:11.622Z,10.50
2022-08-26T16:11:39.547Z,10.15
2022-08-26T16:14:07.746Z,8.77
2022-08-26T16:16:39.230Z,11.00
2022-08-26T16:19:07.730Z,11.63
2022-08-26T16:21:36.354Z,8.52
2022-08-26T16:24:06.403Z,7.35
2022-08-26T16:26:36.271Z,10.63
2022-08-26T16:29:08.641Z,15.52
2022-08-26T16:31:38.712Z,8.00
2022-08-26T16:34:07.947Z,11.05
2022-08-26T16:36:36.131Z,8.55
2022-08-26T16:39:05.155Z,11.30
2022-08-26T16:41:33.701Z,7.35
2022-08-26T16:44:02.083Z,10.00
2022-08-26T16:46:30.011Z,8.30
2022-08-26T16:49:00.179Z,13.88
2022-08-26T16:51:29.126Z,11.20
2022-08-26T16:53:58.651Z,12.40
2022-08-26T16:56:33.741Z,12.45
2022-08-26T16:59:02.704Z,10.88
2022-08-26T17:01:30.619Z,10.82
2022-08-26T17:03:59.704Z,8.90
2022-08-26T17:06:27.494Z,8.18
2022-08-26T17:08:55.180Z,8.45
2022-08-26T17:11:22.893Z,13.73
2022-08-26T17:13:50.652Z,13.38
2022-08-26T17:16:19.158Z,7.18
2022-08-26T17:18:48.126Z,8.73
2022-08-26T17:21:17.293Z,10.90
2022-08-26T17:23:45.922Z,9.65
2022-08-26T17:26:14.015Z,7.32
2022-08-26T17:28:41.800Z,9.38
2022-08-26T17:31:12.045Z,10.45
2022-08-26T17:33:40.075Z,9.90
2022-08-26T17:36:09.564Z,13.90
2022-08-26T17:38:39.654Z,8.00
2022-08-26T17:41:09.110Z,8.90
2022-08-26T17:43:37.265Z,8.07
2022-08-26T17:46:08.227Z,14.32
2022-08-26T17:48:36.217Z,7.07
2022-08-26T17:51:08.274Z,9.65
2022-08-26T17:53:36.097Z,7.93
2022-08-26T17:56:08.902Z,7.00
2022-08-26T17:58:37.475Z,8.60
2022-08-26T18:01:06.118Z,7.28
2022-08-26T18:03:35.069Z,11.00
2022-08-26T18:06:04.016Z,7.90
2022-08-26T18:08:31.718Z,10.45
2022-08-26T18:10:59.805Z,8.07
2022-08-26T18:13:28.858Z,11.32
2022-08-26T18:15:56.631Z,9.68
2022-08-26T18:18:24.392Z,10.23
2022-08-26T18:21:01.226Z,7.53
2022-08-26T18:23:31.466Z,5.30
2022-08-26T18:25:59.367Z,7.32
2022-08-26T18:28:28.448Z,8.38
2022-08-26T18:30:57.050Z,16.92
2022-08-26T18:33:25.500Z,5.95
2022-08-26T18:35:53.720Z,6.40
2022-08-26T18:38:21.395Z,7.88
2022-08-26T18:40:50.287Z,4.75
2022-08-26T18:43:18.013Z,4.25
2022-08-26T18:45:47.283Z,7.32
2022-08-26T18:48:15.647Z,6.90
2022-08-26T18:50:47.284Z,5.32
2022-08-26T18:53:15.742Z,6.03
2022-08-26T18:55:43.535Z,6.95
2022-08-26T18:58:11.683Z,5.68
2022-08-26T19:00:39.626Z,4.47
2022-08-26T19:03:18.384Z,5.43
2022-08-26T19:05:46.515Z,5.90
2022-08-26T19:08:14.320Z,12.45
2022-08-26T19:10:42.128Z,5.68
2022-08-26T19:13:10.557Z,6.60
2022-08-26T19:15:40.162Z,11.40
2022-08-26T19:18:10.272Z,6.07
2022-08-26T19:20:43.502Z,7.13
2022-08-26T19:23:30.969Z,6.63
2022-08-26T19:26:00.269Z,6.85
2022-08-26T19:28:28.077Z,6.05
2022-08-26T19:30:55.827Z,7.05
2022-08-26T19:33:25.228Z,8.68
2022-08-26T19:35:53.001Z,6.90
2022-08-26T19:38:21.148Z,7.75
2022-08-26T19:40:49.208Z,6.45
2022-08-26T19:43:16.969Z,8.00
2022-08-26T19:45:44.731Z,8.30
2022-08-26T19:48:13.080Z,7.47
2022-08-26T19:50:42.194Z,7.47
2022-08-26T19:53:10.275Z,8.05
2022-08-26T19:55:38.078Z,11.20
2022-08-26T19:58:06.452Z,11.02
2022-08-26T20:00:35.692Z,8.23
2022-08-26T20:03:03.523Z,10.73
2022-08-26T20:05:31.330Z,10.00
2022-08-26T20:08:00.403Z,10.23
2022-08-26T20:10:28.294Z,10.13
2022-08-26T20:12:56.290Z,9.18
2022-08-26T20:15:24.661Z,9.25
2022-08-26T20:20:41.133Z,10.80
2022-08-26T20:23:10.552Z,9.23
2022-08-26T20:25:38.268Z,8.75
2022-08-26T20:28:06.197Z,9.05
2022-08-26T20:30:34.005Z,11.40
2022-08-26T20:33:01.856Z,10.10
2022-08-26T20:35:29.575Z,9.02
2022-08-26T20:37:57.301Z,12.07
2022-08-26T20:40:26.694Z,9.63
2022-08-26T20:42:54.467Z,9.48
2022-08-26T20:45:22.263Z,11.63
2022-08-26T20:47:49.977Z,12.27
2022-08-26T20:50:17.691Z,9.77
2022-08-26T20:52:46.317Z,10.55
2022-08-26T20:55:14.149Z,8.25
2022-08-26T20:57:43.680Z,9.82
2022-08-26T21:00:15.208Z,11.13
2022-08-26T21:02:44.770Z,7.60
2022-08-26T21:05:12.619Z,8.10
2022-08-26T21:07:40.394Z,8.57
2022-08-26T21:10:09.095Z,8.88
2022-08-26T21:12:37.454Z,8.43
2022-08-26T21:15:07.547Z,9.38
2022-08-26T21:17:36.660Z,8.75
2022-08-26T21:20:05.172Z,10.02
2022-08-26T21:22:32.862Z,9.77
2022-08-26T21:25:00.760Z,9.77
2022-08-26T21:27:28.518Z,11.85
2022-08-26T21:29:56.870Z,8.90
2022-08-26T21:32:25.996Z,9.05
2022-08-26T21:34:56.743Z,10.50
2022-08-26T21:37:25.148Z,9.05
2022-08-26T21:39:54.247Z,10.63
2022-08-26T21:42:22.063Z,11.88
2022-08-26T21:44:52.789Z,10.10
2022-08-26T21:47:21.055Z,12.50
2022-08-26T21:49:50.365Z,9.65
2022-08-26T21:52:18.226Z,10.75
2022-08-26T21:54:49.271Z,8.32
2022-08-26T21:57:17.467Z,9.25
2022-08-26T21:59:45.345Z,8.13
2022-08-26T22:02:13.495Z,7.43
2022-08-26T22:04:44.545Z,9.52
2022-08-26T22:07:17.066Z,11.60
2022-08-26T22:09:44.877Z,12.55
2022-08-26T22:12:13.426Z,13.32
2022-08-26T22:14:41.178Z,11.88
2022-08-26T22:17:08.916Z,12.40
2022-08-26T22:19:41.342Z,13.85
2022-08-26T22:22:16.278Z,13.25
2022-08-26T22:24:44.299Z,16.13
2022-08-26T22:27:12.992Z,15.43
2022-08-26T22:29:41.182Z,11.20
2022-08-26T22:32:08.977Z,13.13
2022-08-26T22:34:36.745Z,8.48
2022-08-26T22:37:04.718Z,10.50
2022-08-26T22:39:33.871Z,11.20
2022-08-26T22:42:03.597Z,7.75
2022-08-26T22:44:32.862Z,11.50
2022-08-26T22:47:01.323Z,11.02
2022-08-26T22:49:29.110Z,7.13
2022-08-26T22:51:56.902Z,8.23
2022-08-26T22:54:24.642Z,7.43
2022-08-26T22:56:53.689Z,8.65
2022-08-26T22:59:21.416Z,10.38
2022-08-26T23:01:49.172Z,12.18
2022-08-26T23:04:16.958Z,11.07
2022-08-26T23:06:47.841Z,10.85
2022-08-26T23:09:17.869Z,16.10
2022-08-26T23:11:47.358Z,16.10
2022-08-26T23:14:17.482Z,10.38
2022-08-26T23:16:45.492Z,13.20
2022-08-26T23:19:15.039Z,18.17
2022-08-26T23:21:43.493Z,13.20
2022-08-26T23:24:12.091Z,13.05
2022-08-26T23:26:41.221Z,14.23
2022-08-26T23:29:10.749Z,11.88
2022-08-26T23:31:41.537Z,12.45
2022-08-26T23:34:26.908Z,11.48
2022-08-26T23:36:57.935Z,9.93
2022-08-26T23:39:26.444Z,11.80
2022-08-26T23:41:54.164Z,14.32
2022-08-26T23:44:21.968Z,11.50
2022-08-26T23:46:51.050Z,12.57
2022-08-26T23:49:18.913Z,12.07
2022-08-26T23:52:04.244Z,11.57
2022-08-26T23:54:33.569Z,10.77
2022-08-26T23:57:01.354Z,11.55
2022-08-26T23:59:29.169Z,9.07
